Time;durP1;ratioP1;P1;durP2;ratioP2;P2;SDS_P1;SDS_P2;PMS_P1;PMS_P2;Temp;Humidity;BMP_temperature;BMP_pressure;BME280_temperature;BME280_humidity;BME280_pressure;Samples;Min_cycle;Max_cycle;Signal;HPM_P1;HPM_P2
2023/08/09 00:01:45;;;;;;;5.33;1.10;;;12.60;99.90;;;;;;4960460;28;20205;-70
2023/08/09 00:04:12;;;;;;;5.17;1.30;;;12.60;99.90;;;;;;4962876;28;20213;-71
2023/08/09 00:06:39;;;;;;;6.00;1.20;;;12.50;99.90;;;;;;4962414;28;20387;-70
2023/08/09 00:09:06;;;;;;;7.40;1.27;;;12.50;99.90;;;;;;4964936;28;20431;-70
2023/08/09 00:11:33;;;;;;;3.17;0.80;;;12.40;99.90;;;;;;4961448;28;20940;-70
2023/08/09 00:14:02;;;;;;;4.50;1.03;;;12.40;99.90;;;;;;4963933;28;20275;-70
2023/08/09 00:16:29;;;;;;;4.13;1.10;;;12.40;99.90;;;;;;4942519;28;20382;-69
2023/08/09 00:18:56;;;;;;;4.53;1.10;;;12.40;99.90;;;;;;4964456;28;20202;-71
2023/08/09 00:21:23;;;;;;;5.07;1.30;;;12.30;99.90;;;;;;4960605;28;20194;-70
2023/08/09 00:23:50;;;;;;;8.10;1.10;;;12.30;99.90;;;;;;4964228;28;20216;-70
2023/08/09 00:26:17;;;;;;;5.80;1.10;;;12.30;99.90;;;;;;4958037;28;20213;-70
2023/08/09 00:28:43;;;;;;;2.17;0.93;;;12.30;99.90;;;;;;4963287;28;20424;-70
2023/08/09 00:31:12;;;;;;;1.70;0.90;;;12.30;99.90;;;;;;4944300;28;20559;-70
2023/08/09 00:33:39;;;;;;;3.67;1.10;;;12.30;99.90;;;;;;4961636;28;20333;-70
2023/08/09 00:36:06;;;;;;;1.67;0.83;;;12.30;99.90;;;;;;4963614;28;20222;-70
2023/08/09 00:38:32;;;;;;;2.43;1.13;;;12.30;99.90;;;;;;4960821;28;20774;-70
2023/08/09 00:41:00;;;;;;;4.17;1.10;;;12.30;99.90;;;;;;4948265;28;20291;-70
2023/08/09 00:43:27;;;;;;;2.50;1.10;;;12.30;99.90;;;;;;4944454;28;20460;-70
2023/08/09 00:45:54;;;;;;;5.67;1.37;;;12.30;99.90;;;;;;4947314;28;20222;-70
2023/08/09 00:48:23;;;;;;;6.50;1.50;;;12.30;99.90;;;;;;4944551;28;20621;-70
2023/08/09 00:50:50;;;;;;;6.30;1.43;;;12.30;99.90;;;;;;4971003;28;20589;-70
2023/08/09 00:53:17;;;;;;;4.13;0.87;;;12.30;99.90;;;;;;4961167;28;20206;-70
2023/08/09 00:55:44;;;;;;;4.70;1.17;;;12.30;99.90;;;;;;4962700;28;20229;-70
2023/08/09 00:58:11;;;;;;;1.97;1.10;;;12.30;99.90;;;;;;4970380;28;20540;-70
2023/08/09 01:00:38;;;;;;;3.90;1.33;;;12.20;99.90;;;;;;4951933;28;20721;-70
2023/08/09 01:03:05;;;;;;;3.43;1.20;;;12.20;99.90;;;;;;4941214;28;20213;-70
2023/08/09 01:05:45;;;;;;;7.80;1.40;;;12.20;99.90;;;;;;4950727;28;20589;-70
2023/08/09 01:08:20;;;;;;;6.70;1.03;;;12.20;99.90;;;;;;4962122;28;20568;-71
2023/08/09 01:10:55;;;;;;;5.40;1.50;;;12.20;99.90;;;;;;4954656;28;20300;-70
2023/08/09 01:13:22;;;;;;;4.17;1.20;;;12.20;99.90;;;;;;4958729;28;20197;-70
2023/08/09 01:15:51;;;;;;;2.47;0.90;;;12.20;99.90;;;;;;4946005;28;20742;-70
2023/08/09 01:18:18;;;;;;;4.93;0.90;;;12.20;99.90;;;;;;4935471;28;20206;-69
2023/08/09 01:20:49;;;;;;;4.50;1.07;;;12.20;99.90;;;;;;4959372;28;20201;-70
2023/08/09 01:23:19;;;;;;;3.57;1.27;;;12.20;99.90;;;;;;4976548;28;20216;-70
2023/08/09 01:25:48;;;;;;;3.63;1.00;;;12.20;99.90;;;;;;4962542;28;20234;-70
2023/08/09 01:28:16;;;;;;;5.23;0.90;;;12.10;99.90;;;;;;4965939;28;20559;-70
2023/08/09 01:30:43;;;;;;;2.80;0.87;;;12.10;99.90;;;;;;4966150;28;20359;-70
2023/08/09 01:33:10;;;;;;;4.23;1.10;;;12.10;99.90;;;;;;4938464;28;20214;-70
2023/08/09 01:35:50;;;;;;;3.53;1.27;;;12.10;99.90;;;;;;4964818;28;20495;-70
2023/08/09 01:38:23;;;;;;;2.63;1.00;;;12.00;99.90;;;;;;4963978;28;20190;-70
2023/08/09 01:40:53;;;;;;;1.83;0.90;;;12.00;99.90;;;;;;4967229;28;20635;-70
2023/08/09 01:43:22;;;;;;;3.27;0.83;;;12.00;99.90;;;;;;4963146;28;20202;-70
2023/08/09 01:45:49;;;;;;;1.83;0.87;;;12.00;99.90;;;;;;4956582;28;20644;-70
2023/08/09 01:48:17;;;;;;;1.60;0.80;;;12.00;99.90;;;;;;4939342;28;20670;-71
2023/08/09 01:50:45;;;;;;;3.03;1.07;;;12.00;99.90;;;;;;4959847;28;20722;-70
2023/08/09 01:53:12;;;;;;;4.90;1.17;;;11.90;99.90;;;;;;4964518;28;20595;-70
2023/08/09 01:55:40;;;;;;;5.40;1.10;;;11.90;99.90;;;;;;4954202;28;20218;-70
2023/08/09 01:58:08;;;;;;;2.20;1.13;;;11.90;99.90;;;;;;4957290;28;20288;-70
2023/08/09 02:00:35;;;;;;;3.67;0.90;;;11.80;99.90;;;;;;4964252;28;20899;-71
2023/08/09 02:03:03;;;;;;;6.83;1.17;;;11.80;99.90;;;;;;4966781;28;20202;-70
2023/08/09 02:05:30;;;;;;;2.60;1.07;;;11.80;99.90;;;;;;4945396;28;20313;-70
2023/08/09 02:07:57;;;;;;;4.20;1.20;;;11.80;99.90;;;;;;4971755;28;20544;-70
2023/08/09 02:10:24;;;;;;;2.63;0.80;;;11.80;99.90;;;;;;4961969;28;20198;-70
2023/08/09 02:12:53;;;;;;;3.37;0.73;;;11.80;99.90;;;;;;4968586;28;20194;-70
2023/08/09 02:15:22;;;;;;;3.70;1.30;;;11.70;99.90;;;;;;4973762;28;20699;-70
2023/08/09 02:17:50;;;;;;;2.60;0.90;;;11.70;99.90;;;;;;4966544;28;20222;-70
2023/08/09 02:20:19;;;;;;;6.37;0.97;;;11.70;99.90;;;;;;4952464;28;20284;-70
2023/08/09 02:22:46;;;;;;;2.37;0.90;;;11.70;99.90;;;;;;4963035;28;20202;-70
2023/08/09 02:25:14;;;;;;;9.30;1.67;;;11.80;99.90;;;;;;4964083;28;20226;-70
2023/08/09 02:27:41;;;;;;;3.37;1.20;;;11.80;99.90;;;;;;4964520;28;20472;-70
2023/08/09 02:30:09;;;;;;;2.73;1.37;;;11.80;99.90;;;;;;4965807;28;20214;-70
2023/08/09 02:32:37;;;;;;;8.53;0.77;;;11.80;99.90;;;;;;4965920;28;20420;-70
2023/08/09 02:35:06;;;;;;;2.70;1.00;;;11.80;99.90;;;;;;4953211;28;20218;-70
2023/08/09 02:37:34;;;;;;;4.23;0.97;;;11.80;99.90;;;;;;4948618;28;20225;-70
2023/08/09 02:40:00;;;;;;;4.63;1.03;;;11.80;99.90;;;;;;4963093;28;20204;-70
2023/08/09 02:42:28;;;;;;;4.07;1.00;;;11.80;99.90;;;;;;4963785;28;20490;-70
2023/08/09 02:44:55;;;;;;;3.67;0.77;;;11.80;99.90;;;;;;4952510;28;20249;-70
2023/08/09 02:47:23;;;;;;;3.77;1.27;;;11.80;99.90;;;;;;4950540;28;20194;-71
2023/08/09 02:49:51;;;;;;;1.73;0.83;;;11.80;99.90;;;;;;4965903;28;20210;-70
2023/08/09 02:52:18;;;;;;;4.13;1.10;;;11.70;99.90;;;;;;4930909;28;20584;-71
2023/08/09 02:54:45;;;;;;;6.53;1.57;;;11.70;99.90;;;;;;4964915;28;20249;-70
2023/08/09 02:57:12;;;;;;;4.17;1.73;;;11.70;99.90;;;;;;4964439;28;20626;-71
2023/08/09 02:59:39;;;;;;;5.30;1.33;;;11.70;99.90;;;;;;4972368;28;20762;-70
2023/08/09 03:02:06;;;;;;;6.13;0.90;;;11.70;99.90;;;;;;4951164;28;20671;-70
2023/08/09 03:04:34;;;;;;;2.10;0.97;;;11.70;99.90;;;;;;4956486;28;20817;-70
2023/08/09 03:07:02;;;;;;;3.80;1.30;;;11.70;99.90;;;;;;4938391;28;20292;-70
2023/08/09 03:09:30;;;;;;;3.30;1.13;;;11.70;99.90;;;;;;4966791;28;20202;-70
2023/08/09 03:11:57;;;;;;;3.60;1.10;;;11.60;99.90;;;;;;4954665;28;20778;-70
2023/08/09 03:14:24;;;;;;;5.67;1.27;;;11.60;99.90;;;;;;4966252;28;20198;-71
2023/08/09 03:16:51;;;;;;;3.60;1.47;;;11.70;99.90;;;;;;4957929;28;20222;-70
2023/08/09 03:19:18;;;;;;;4.90;1.10;;;11.60;99.90;;;;;;4953905;28;20217;-70
2023/08/09 03:21:48;;;;;;;2.97;1.50;;;11.60;99.90;;;;;;4947813;28;20198;-70
2023/08/09 03:24:16;;;;;;;6.83;1.23;;;11.60;99.90;;;;;;4947490;28;20297;-71
2023/08/09 03:26:44;;;;;;;2.63;1.10;;;11.60;99.90;;;;;;4951769;28;20222;-70
2023/08/09 03:29:13;;;;;;;3.20;1.10;;;11.60;99.90;;;;;;4950374;28;20233;-70
2023/08/09 03:31:41;;;;;;;6.60;1.67;;;11.70;99.90;;;;;;4962946;28;20771;-70
2023/08/09 03:34:08;;;;;;;2.57;1.20;;;11.70;99.90;;;;;;4950830;28;20240;-70
2023/08/09 03:36:35;;;;;;;4.57;1.03;;;11.70;99.90;;;;;;4953640;28;20436;-70
2023/08/09 03:39:02;;;;;;;4.30;1.57;;;11.70;99.90;;;;;;4947060;28;20595;-70
2023/08/09 03:41:31;;;;;;;6.53;1.40;;;11.70;99.90;;;;;;4959554;28;20499;-70
2023/08/09 03:43:57;;;;;;;2.80;1.90;;;11.70;99.90;;;;;;4964579;28;20382;-70
2023/08/09 03:46:24;;;;;;;2.73;0.93;;;11.70;99.90;;;;;;4967289;28;20236;-70
2023/08/09 03:48:51;;;;;;;3.37;1.33;;;11.70;99.90;;;;;;4964852;28;20277;-70
2023/08/09 03:51:18;;;;;;;4.47;0.93;;;11.70;99.90;;;;;;4962187;28;20706;-70
2023/08/09 03:53:46;;;;;;;4.63;1.53;;;11.70;99.90;;;;;;4950539;28;20682;-70
2023/08/09 03:56:13;;;;;;;6.20;1.40;;;11.70;99.90;;;;;;4949041;28;20217;-71
2023/08/09 03:58:42;;;;;;;3.07;1.00;;;11.70;99.90;;;;;;4972078;28;20218;-70
2023/08/09 04:01:09;;;;;;;5.33;1.47;;;11.70;99.90;;;;;;4963592;28;20202;-70
2023/08/09 04:03:36;;;;;;;4.57;1.10;;;11.70;99.90;;;;;;4966140;28;20316;-70
2023/08/09 04:06:03;;;;;;;4.30;1.07;;;11.70;99.90;;;;;;4948055;28;20225;-70
2023/08/09 04:08:31;;;;;;;3.00;1.10;;;11.70;99.90;;;;;;4942527;28;20952;-71
2023/08/09 04:10:57;;;;;;;4.93;1.40;;;11.70;99.90;;;;;;4950648;28;20233;-70
2023/08/09 04:13:24;;;;;;;3.47;1.37;;;11.70;99.90;;;;;;4960107;28;20272;-71
2023/08/09 04:15:53;;;;;;;3.77;1.57;;;11.80;99.90;;;;;;4965790;28;20298;-70
2023/08/09 04:18:19;;;;;;;5.57;1.50;;;11.80;99.90;;;;;;4950408;28;20234;-70
2023/08/09 04:20:46;;;;;;;4.50;1.50;;;11.80;99.90;;;;;;4952594;28;20198;-70
2023/08/09 04:23:13;;;;;;;5.10;1.97;;;11.80;99.90;;;;;;4937647;28;20682;-70
2023/08/09 04:25:40;;;;;;;4.07;1.20;;;11.80;99.90;;;;;;4946061;28;20237;-70
2023/08/09 04:28:08;;;;;;;5.17;1.60;;;11.80;99.90;;;;;;4960660;28;20197;-70
2023/08/09 04:30:35;;;;;;;3.50;1.50;;;11.80;99.90;;;;;;4964346;28;20203;-70
2023/08/09 04:33:04;;;;;;;3.43;1.50;;;11.80;99.90;;;;;;4960289;28;20585;-70
2023/08/09 04:35:31;;;;;;;3.40;1.73;;;11.80;99.90;;;;;;4963541;28;20263;-70
2023/08/09 04:37:58;;;;;;;5.43;1.53;;;11.80;99.90;;;;;;4960474;28;20233;-70
2023/08/09 04:40:25;;;;;;;5.23;1.73;;;11.90;99.90;;;;;;4933096;28;20234;-70
2023/08/09 04:42:52;;;;;;;4.63;1.67;;;11.90;99.90;;;;;;4957735;28;20293;-71
2023/08/09 04:45:19;;;;;;;4.80;1.40;;;11.90;99.90;;;;;;4960691;28;20280;-70
2023/08/09 04:47:47;;;;;;;5.07;1.83;;;11.90;99.90;;;;;;4962619;28;20198;-71
2023/08/09 04:50:15;;;;;;;3.07;1.47;;;11.90;99.90;;;;;;4961845;28;20579;-70
2023/08/09 04:52:43;;;;;;;4.60;1.70;;;12.00;99.90;;;;;;4962627;28;20724;-71
2023/08/09 04:55:10;;;;;;;1.63;1.30;;;12.00;99.90;;;;;;4943295;28;20395;-66
2023/08/09 04:57:38;;;;;;;3.53;1.83;;;12.00;99.90;;;;;;4959960;28;20202;-66
2023/08/09 05:00:10;;;;;;;6.90;1.33;;;12.10;99.90;;;;;;4955936;28;20602;-66
2023/08/09 05:02:38;;;;;;;5.57;1.73;;;12.10;99.90;;;;;;4958166;28;20220;-69
2023/08/09 05:05:05;;;;;;;5.90;1.50;;;12.20;99.90;;;;;;4965726;28;20627;-67
2023/08/09 05:07:33;;;;;;;2.63;1.20;;;12.30;99.90;;;;;;4962779;28;20194;-67
2023/08/09 05:10:01;;;;;;;2.47;1.10;;;12.30;99.90;;;;;;4963629;28;20455;-67
2023/08/09 05:12:27;;;;;;;2.70;1.57;;;12.40;99.90;;;;;;4946259;28;20198;-66
2023/08/09 05:14:54;;;;;;;3.17;1.30;;;12.50;99.90;;;;;;4955375;28;20432;-67
2023/08/09 05:17:22;;;;;;;7.07;1.70;;;12.50;99.90;;;;;;4958572;28;20257;-66
2023/08/09 05:19:48;;;;;;;5.00;1.40;;;12.60;99.90;;;;;;4962850;28;20318;-66
2023/08/09 05:22:15;;;;;;;3.63;1.53;;;12.70;99.90;;;;;;4965685;28;20213;-67
2023/08/09 05:24:43;;;;;;;4.77;1.10;;;12.80;99.90;;;;;;4965040;28;20214;-67
2023/08/09 05:27:10;;;;;;;3.07;1.13;;;12.80;99.90;;;;;;4932500;28;20209;-66
2023/08/09 05:29:37;;;;;;;5.23;1.13;;;12.90;99.90;;;;;;4948425;28;20206;-66
2023/08/09 05:32:04;;;;;;;3.67;1.20;;;12.90;99.90;;;;;;4946553;28;20622;-67
2023/08/09 05:34:31;;;;;;;4.13;1.00;;;12.90;99.90;;;;;;4959123;28;20214;-67
2023/08/09 05:36:58;;;;;;;2.10;1.20;;;12.90;99.90;;;;;;4954103;28;20205;-67
2023/08/09 05:39:25;;;;;;;6.03;1.30;;;13.00;99.90;;;;;;4963265;28;20217;-67
2023/08/09 05:41:53;;;;;;;4.00;1.50;;;13.00;99.90;;;;;;4933511;28;20210;-67
2023/08/09 05:44:20;;;;;;;2.63;1.30;;;13.00;99.90;;;;;;4966412;28;20572;-67
2023/08/09 05:46:47;;;;;;;4.30;1.40;;;13.10;99.90;;;;;;4952744;28;20519;-67
2023/08/09 05:49:14;;;;;;;2.90;1.57;;;13.10;99.90;;;;;;4954285;28;20206;-67
2023/08/09 05:51:41;;;;;;;4.13;1.63;;;13.20;99.90;;;;;;4955953;28;20209;-67
2023/08/09 05:54:08;;;;;;;5.13;1.37;;;13.20;99.90;;;;;;4964358;28;20204;-67
2023/08/09 05:56:34;;;;;;;3.17;1.33;;;13.30;99.90;;;;;;4953901;28;20217;-66
2023/08/09 05:59:04;;;;;;;5.30;0.93;;;13.30;99.90;;;;;;4955806;28;20226;-66
2023/08/09 06:01:31;;;;;;;5.63;1.17;;;13.40;99.90;;;;;;4952488;28;20253;-67
2023/08/09 06:03:58;;;;;;;4.87;1.43;;;13.40;99.90;;;;;;4956154;28;20685;-67
2023/08/09 06:06:25;;;;;;;3.40;1.23;;;13.40;99.90;;;;;;4961381;28;20226;-67
2023/08/09 06:08:52;;;;;;;4.53;1.00;;;13.50;99.90;;;;;;4961631;28;20539;-67
2023/08/09 06:11:19;;;;;;;5.83;2.00;;;13.50;99.90;;;;;;4966408;28;20564;-67
2023/08/09 06:13:46;;;;;;;5.93;1.83;;;13.60;99.90;;;;;;4945717;28;20202;-66
2023/08/09 06:16:15;;;;;;;4.97;1.30;;;13.70;99.90;;;;;;4961605;28;20244;-66
2023/08/09 06:18:42;;;;;;;1.73;1.20;;;13.80;99.90;;;;;;4957796;28;20674;-67
2023/08/09 06:21:09;;;;;;;6.27;1.40;;;13.90;99.90;;;;;;4974337;28;20200;-67
2023/08/09 06:23:36;;;;;;;5.57;1.60;;;13.90;99.90;;;;;;4959350;28;20202;-66
2023/08/09 06:26:03;;;;;;;6.20;1.37;;;14.00;99.90;;;;;;4966217;28;20381;-67
2023/08/09 06:28:30;;;;;;;6.87;1.17;;;14.00;99.90;;;;;;4964182;28;20267;-66
2023/08/09 06:30:57;;;;;;;6.43;1.27;;;14.10;99.90;;;;;;4947562;28;20206;-67
2023/08/09 06:33:25;;;;;;;4.00;1.37;;;14.10;99.90;;;;;;4966354;28;20214;-68
2023/08/09 06:35:52;;;;;;;3.73;1.53;;;14.00;99.90;;;;;;4961274;28;20244;-67
2023/08/09 06:38:20;;;;;;;4.40;1.10;;;14.00;99.90;;;;;;4965429;28;20210;-68
2023/08/09 06:40:47;;;;;;;2.93;1.07;;;14.00;99.90;;;;;;4964174;28;20194;-68
2023/08/09 06:43:14;;;;;;;4.73;1.23;;;14.00;99.90;;;;;;4970575;28;20727;-67
2023/08/09 06:45:44;;;;;;;3.33;1.00;;;14.00;99.90;;;;;;4943236;28;20229;-68
2023/08/09 06:48:10;;;;;;;4.50;1.30;;;13.90;99.90;;;;;;4967234;28;20194;-68
2023/08/09 06:50:39;;;;;;;4.03;1.00;;;13.90;99.90;;;;;;4968580;28;20221;-68
2023/08/09 06:53:07;;;;;;;6.80;1.20;;;13.90;99.90;;;;;;4965964;28;20686;-68
2023/08/09 06:55:34;;;;;;;5.07;1.20;;;13.90;99.90;;;;;;4970747;28;20245;-69
2023/08/09 06:58:01;;;;;;;2.70;1.10;;;13.90;99.90;;;;;;4970972;28;20256;-68
2023/08/09 07:00:28;;;;;;;8.73;1.30;;;14.00;99.90;;;;;;4947926;28;20206;-68
2023/08/09 07:02:55;;;;;;;2.97;1.33;;;14.00;99.90;;;;;;4961733;28;20757;-67
2023/08/09 07:05:22;;;;;;;3.57;1.20;;;14.10;99.90;;;;;;4965058;28;20285;-67
2023/08/09 07:07:54;;;;;;;2.53;1.23;;;14.10;99.90;;;;;;4957401;28;20488;-67
2023/08/09 07:10:21;;;;;;;5.20;1.20;;;14.20;99.90;;;;;;4963775;28;20204;-67
2023/08/09 07:12:48;;;;;;;5.53;1.33;;;14.30;99.90;;;;;;4954004;28;20408;-67
2023/08/09 07:15:15;;;;;;;6.23;1.40;;;14.40;99.90;;;;;;4949156;28;20221;-66
2023/08/09 07:17:42;;;;;;;4.03;1.60;;;14.50;99.90;;;;;;4960370;28;20194;-67
2023/08/09 07:20:11;;;;;;;9.03;1.23;;;14.60;99.90;;;;;;4961553;28;20206;-66
2023/08/09 07:22:38;;;;;;;6.37;1.13;;;14.70;99.90;;;;;;4958985;28;20230;-67
2023/08/09 07:25:09;;;;;;;5.47;1.37;;;14.90;99.90;;;;;;4963692;28;20229;-67
2023/08/09 07:27:39;;;;;;;5.53;2.23;;;15.00;99.90;;;;;;4959388;28;20198;-67
2023/08/09 07:30:08;;;;;;;2.87;1.27;;;15.10;99.90;;;;;;4948309;28;20206;-67
2023/08/09 07:32:37;;;;;;;4.80;1.50;;;15.20;99.90;;;;;;4957347;28;20221;-68
2023/08/09 07:35:05;;;;;;;6.03;1.37;;;15.40;99.90;;;;;;4965903;28;20214;-67
2023/08/09 07:37:34;;;;;;;3.17;1.47;;;15.50;99.90;;;;;;4957833;28;20212;-67
2023/08/09 07:40:01;;;;;;;3.23;1.00;;;15.40;99.90;;;;;;4959873;28;20818;-67
2023/08/09 07:42:29;;;;;;;6.93;1.20;;;15.40;99.90;;;;;;4958508;28;20206;-67
2023/08/09 07:44:56;;;;;;;5.53;1.27;;;15.40;99.90;;;;;;4962505;28;20229;-67
2023/08/09 07:47:23;;;;;;;6.87;1.73;;;15.50;99.90;;;;;;4950187;28;20200;-67
2023/08/09 07:49:50;;;;;;;4.33;0.87;;;15.60;99.90;;;;;;4955028;28;20570;-67
2023/08/09 07:52:17;;;;;;;4.50;0.90;;;15.70;99.90;;;;;;4951201;28;20206;-67
2023/08/09 07:54:44;;;;;;;3.83;1.10;;;15.70;99.90;;;;;;4954704;28;20283;-67
2023/08/09 07:57:12;;;;;;;5.40;1.20;;;15.60;99.90;;;;;;4957614;28;20209;-67
2023/08/09 07:59:40;;;;;;;3.33;1.37;;;15.50;99.90;;;;;;4959911;28;20222;-68
2023/08/09 08:02:07;;;;;;;3.33;1.20;;;15.60;99.90;;;;;;4949879;28;20618;-67
2023/08/09 08:04:34;;;;;;;5.43;1.43;;;15.70;99.90;;;;;;4959494;28;20201;-67
2023/08/09 08:07:01;;;;;;;5.00;1.10;;;15.70;99.90;;;;;;4963188;28;20403;-68
2023/08/09 08:09:27;;;;;;;5.83;1.30;;;15.80;99.90;;;;;;4959885;28;20202;-67
2023/08/09 08:11:54;;;;;;;3.57;1.53;;;15.80;99.90;;;;;;4963321;28;20230;-67
2023/08/09 08:14:22;;;;;;;1.70;0.90;;;15.80;99.90;;;;;;4964327;28;20214;-67
2023/08/09 08:16:50;;;;;;;4.47;1.23;;;15.90;99.90;;;;;;4941943;28;20344;-68
2023/08/09 08:19:17;;;;;;;1.83;0.80;;;15.80;99.90;;;;;;4966268;28;20220;-67
2023/08/09 08:21:44;;;;;;;3.03;1.30;;;15.70;99.90;;;;;;4952659;28;20427;-68
2023/08/09 08:24:11;;;;;;;8.00;1.20;;;15.70;99.90;;;;;;4965000;28;20209;-68
2023/08/09 08:26:38;;;;;;;2.90;1.03;;;15.80;99.90;;;;;;4956945;28;20214;-68
2023/08/09 08:29:06;;;;;;;3.40;1.10;;;15.80;99.90;;;;;;4961237;28;20716;-67
2023/08/09 08:31:33;;;;;;;7.30;1.63;;;15.80;99.90;;;;;;4960904;28;20261;-67
2023/08/09 08:34:01;;;;;;;5.23;1.67;;;16.00;99.90;;;;;;4947179;28;20520;-68
2023/08/09 08:36:28;;;;;;;3.80;0.97;;;16.00;99.90;;;;;;4919756;28;20867;-67
2023/08/09 08:38:55;;;;;;;4.03;1.17;;;16.10;99.90;;;;;;4951242;28;20277;-68
2023/08/09 08:41:22;;;;;;;3.27;1.00;;;16.10;99.90;;;;;;4967121;28;20197;-67
2023/08/09 08:43:49;;;;;;;2.83;1.00;;;16.30;99.90;;;;;;4957938;28;20201;-67
2023/08/09 08:46:16;;;;;;;6.77;0.90;;;16.30;99.90;;;;;;4958625;28;20225;-67
2023/08/09 08:48:48;;;;;;;6.37;1.60;;;16.30;99.90;;;;;;4949217;28;20243;-68
2023/08/09 08:51:18;;;;;;;5.20;1.07;;;16.30;99.90;;;;;;4954233;28;20319;-68
2023/08/09 08:53:46;;;;;;;6.27;1.40;;;16.10;99.90;;;;;;4960354;28;20690;-68
2023/08/09 08:56:14;;;;;;;4.83;1.30;;;16.10;99.90;;;;;;4958216;28;20298;-67
2023/08/09 08:58:41;;;;;;;6.57;1.63;;;16.10;99.90;;;;;;4958414;28;20253;-67
2023/08/09 09:01:09;;;;;;;3.57;0.97;;;16.10;99.90;;;;;;4953584;28;20359;-68
2023/08/09 09:03:36;;;;;;;6.33;1.33;;;16.20;99.90;;;;;;4961080;28;20694;-68
2023/08/09 09:06:03;;;;;;;6.37;1.20;;;16.30;99.90;;;;;;4962402;28;20224;-68
2023/08/09 09:08:40;;;;;;;5.03;1.33;;;16.40;99.90;;;;;;4963452;28;20210;-67
2023/08/09 09:11:15;;;;;;;6.47;1.60;;;16.40;99.90;;;;;;4942853;28;20671;-67
2023/08/09 09:13:42;;;;;;;3.50;1.20;;;16.40;99.90;;;;;;4963354;28;20568;-67
2023/08/09 09:16:09;;;;;;;3.10;0.97;;;16.30;99.90;;;;;;4951560;28;20431;-68
2023/08/09 09:18:41;;;;;;;6.17;1.57;;;16.20;99.90;;;;;;4962499;28;20626;-67
2023/08/09 09:21:09;;;;;;;4.70;1.70;;;16.20;99.90;;;;;;4941860;28;20212;-67
2023/08/09 09:23:39;;;;;;;4.60;1.70;;;16.20;99.90;;;;;;4957800;28;20210;-67
2023/08/09 09:26:09;;;;;;;4.47;1.37;;;16.40;99.90;;;;;;4954613;28;20221;-67
2023/08/09 09:28:41;;;;;;;5.13;1.63;;;16.50;99.90;;;;;;4963979;28;20293;-67
2023/08/09 09:31:08;;;;;;;7.40;1.60;;;16.70;99.90;;;;;;4949250;28;20596;-67
2023/08/09 09:33:36;;;;;;;3.60;1.03;;;16.90;99.90;;;;;;4957702;28;20202;-68
2023/08/09 09:36:04;;;;;;;2.00;1.03;;;17.00;99.90;;;;;;4944607;28;20222;-67
2023/08/09 09:38:33;;;;;;;4.83;1.60;;;17.00;99.90;;;;;;4965039;28;20240;-67
2023/08/09 09:41:02;;;;;;;4.13;1.17;;;17.00;99.90;;;;;;4962325;28;20202;-68
2023/08/09 09:43:33;;;;;;;4.60;1.07;;;17.10;99.90;;;;;;4965762;28;20281;-67
2023/08/09 09:46:00;;;;;;;2.53;1.20;;;17.20;99.90;;;;;;4958454;28;20235;-67
2023/08/09 09:48:28;;;;;;;3.53;1.40;;;17.20;99.90;;;;;;4961107;28;20261;-67
2023/08/09 09:50:55;;;;;;;3.03;1.47;;;17.20;99.90;;;;;;4951144;28;20308;-67
2023/08/09 09:53:22;;;;;;;4.43;1.70;;;17.20;99.90;;;;;;4965468;28;20198;-67
2023/08/09 09:55:50;;;;;;;4.40;1.20;;;17.30;99.90;;;;;;4960483;28;20236;-67
2023/08/09 09:58:18;;;;;;;4.23;1.30;;;17.40;99.90;;;;;;4958792;28;20224;-67
2023/08/09 10:00:50;;;;;;;6.50;1.03;;;17.50;99.90;;;;;;4966310;28;20662;-66
2023/08/09 10:03:22;;;;;;;4.67;1.37;;;17.50;99.90;;;;;;4958085;28;20781;-67
2023/08/09 10:05:51;;;;;;;4.77;1.67;;;17.60;99.90;;;;;;4966097;28;20221;-67
2023/08/09 10:08:19;;;;;;;5.90;1.40;;;17.80;99.90;;;;;;4953655;28;20216;-67
2023/08/09 10:10:48;;;;;;;5.17;1.43;;;17.90;99.90;;;;;;4961035;28;20280;-68
2023/08/09 10:13:21;;;;;;;6.27;1.33;;;17.80;99.90;;;;;;4957935;28;20207;-68
2023/08/09 10:15:51;;;;;;;4.77;1.07;;;17.70;99.90;;;;;;4971119;28;20221;-68
2023/08/09 10:18:23;;;;;;;6.37;0.97;;;17.70;99.90;;;;;;4960211;28;20217;-68
2023/08/09 10:20:52;;;;;;;5.20;1.10;;;17.60;99.90;;;;;;4962729;28;20201;-68
2023/08/09 10:23:23;;;;;;;4.13;1.17;;;17.50;99.90;;;;;;4947626;28;20408;-67
2023/08/09 10:25:50;;;;;;;5.03;1.20;;;17.60;99.90;;;;;;4956122;28;20233;-67
2023/08/09 10:28:40;;;;;;;1.97;0.97;;;17.60;99.90;;;;;;4961724;28;20678;-67
2023/08/09 10:31:07;;;;;;;4.47;1.03;;;17.60;99.90;;;;;;4965317;28;20202;-67
2023/08/09 10:33:34;;;;;;;3.43;1.10;;;17.60;99.90;;;;;;4959670;28;20293;-67
2023/08/09 10:36:01;;;;;;;3.67;1.07;;;17.70;99.90;;;;;;4962554;28;20628;-67
2023/08/09 10:38:40;;;;;;;3.93;1.20;;;17.70;99.90;;;;;;4947025;28;20206;-67
2023/08/09 10:41:09;;;;;;;2.43;1.10;;;17.60;99.90;;;;;;4958189;28;20194;-67
2023/08/09 10:43:38;;;;;;;7.67;1.53;;;17.50;99.90;;;;;;4957164;28;20790;-67
2023/08/09 10:46:19;;;;;;;5.83;1.20;;;17.50;99.90;;;;;;4964752;28;20217;-67
2023/08/09 10:48:50;;;;;;;3.50;1.33;;;17.60;99.90;;;;;;4954387;28;20345;-67
2023/08/09 10:51:19;;;;;;;6.10;1.13;;;17.70;99.90;;;;;;4960413;28;20206;-66
2023/08/09 10:53:56;;;;;;;4.17;1.53;;;17.90;99.90;;;;;;4945041;28;20316;-67
2023/08/09 10:56:31;;;;;;;3.33;0.93;;;18.00;99.90;;;;;;4961023;28;20229;-66
2023/08/09 10:59:06;;;;;;;3.87;1.30;;;17.90;99.90;;;;;;4958346;28;20221;-67
2023/08/09 11:01:33;;;;;;;2.50;1.50;;;17.90;99.90;;;;;;4962654;28;20213;-64
2023/08/09 11:04:00;;;;;;;4.63;1.20;;;18.10;99.90;;;;;;4952320;28;20217;-66
2023/08/09 11:06:37;;;;;;;3.40;1.20;;;18.30;99.90;;;;;;4952950;28;20222;-66
2023/08/09 11:09:09;;;;;;;7.27;1.63;;;18.30;99.90;;;;;;4967117;28;20255;-66
2023/08/09 11:11:37;;;;;;;4.27;1.37;;;18.20;99.90;;;;;;4943916;28;20297;-66
2023/08/09 11:14:05;;;;;;;6.97;1.30;;;18.20;99.90;;;;;;4960638;28;20690;-67
2023/08/09 11:16:32;;;;;;;3.93;1.17;;;18.30;99.90;;;;;;4963121;28;20269;-65
2023/08/09 11:19:01;;;;;;;3.10;1.00;;;18.40;99.90;;;;;;4966510;28;20282;-66
2023/08/09 11:21:28;;;;;;;2.17;1.00;;;18.50;99.90;;;;;;4952264;28;20206;-65
2023/08/09 11:23:57;;;;;;;7.07;1.10;;;18.60;99.90;;;;;;4963998;28;20454;-66
2023/08/09 11:26:26;;;;;;;1.90;0.90;;;18.70;99.90;;;;;;4950086;28;20303;-66
2023/08/09 11:28:53;;;;;;;2.47;0.90;;;18.70;99.90;;;;;;4961085;28;20864;-67
2023/08/09 11:31:21;;;;;;;3.67;1.00;;;18.60;99.90;;;;;;4963752;28;20210;-66
2023/08/09 11:33:48;;;;;;;3.03;0.80;;;18.50;99.90;;;;;;4958034;28;20302;-66
2023/08/09 11:36:16;;;;;;;2.47;1.00;;;18.20;99.90;;;;;;4953251;28;20232;-64
2023/08/09 11:38:42;;;;;;;3.90;1.00;;;17.70;99.90;;;;;;4962756;28;20298;-66
2023/08/09 11:41:16;;;;;;;2.33;0.80;;;17.10;99.90;;;;;;4962224;28;20237;-66
2023/08/09 11:43:43;;;;;;;2.57;0.60;;;16.80;99.90;;;;;;4953399;28;20206;-66
2023/08/09 11:46:10;;;;;;;4.60;1.00;;;16.50;99.90;;;;;;4961472;28;20240;-65
2023/08/09 11:48:41;;;;;;;3.40;1.10;;;16.50;99.90;;;;;;4962531;28;20381;-67
2023/08/09 11:51:12;;;;;;;3.37;0.90;;;16.50;99.90;;;;;;4953654;28;20198;-66
2023/08/09 11:53:41;;;;;;;4.47;1.03;;;16.60;99.90;;;;;;4943466;28;20213;-65
2023/08/09 11:56:12;;;;;;;2.73;1.30;;;16.70;99.90;;;;;;4957487;28;20249;-67
2023/08/09 11:58:43;;;;;;;5.93;1.40;;;16.80;99.90;;;;;;4940821;28;20206;-65
2023/08/09 12:01:20;;;;;;;4.63;1.67;;;17.00;99.90;;;;;;4950849;28;20735;-66
2023/08/09 12:03:50;;;;;;;4.03;1.20;;;17.10;99.90;;;;;;4958831;28;20202;-66
2023/08/09 12:06:18;;;;;;;9.43;1.20;;;17.20;99.90;;;;;;4958555;28;20230;-66
2023/08/09 12:08:45;;;;;;;2.80;1.00;;;17.20;99.90;;;;;;4958003;28;20202;-65
2023/08/09 12:11:16;;;;;;;3.70;1.10;;;17.20;99.90;;;;;;4964141;28;20202;-66
2023/08/09 12:13:43;;;;;;;3.63;1.20;;;17.10;99.90;;;;;;4942370;28;20214;-66
2023/08/09 12:16:10;;;;;;;2.93;1.03;;;17.00;99.90;;;;;;4955815;28;20491;-67
2023/08/09 12:18:37;;;;;;;2.10;1.10;;;16.90;99.90;;;;;;4964821;28;20217;-65
2023/08/09 12:21:07;;;;;;;2.27;0.80;;;17.00;99.90;;;;;;4961204;28;20333;-67
2023/08/09 12:23:36;;;;;;;3.20;0.97;;;17.00;99.90;;;;;;4965275;28;20205;-67
2023/08/09 12:26:03;;;;;;;3.70;0.80;;;17.00;99.90;;;;;;4959135;28;20293;-66
2023/08/09 12:28:30;;;;;;;1.03;0.60;;;17.00;99.90;;;;;;4951702;28;20234;-67
2023/08/09 12:30:57;;;;;;;2.63;0.90;;;17.10;99.90;;;;;;4949920;28;21449;-66
2023/08/09 12:33:27;;;;;;;3.30;0.67;;;17.20;99.90;;;;;;4964066;28;20209;-66
2023/08/09 12:35:54;;;;;;;1.83;0.70;;;17.40;99.90;;;;;;4955060;28;20240;-66
2023/08/09 12:38:22;;;;;;;2.43;0.50;;;17.70;99.90;;;;;;4966740;28;21021;-66
2023/08/09 12:40:50;;;;;;;3.10;0.90;;;18.00;99.90;;;;;;4957751;28;20217;-65
2023/08/09 12:43:17;;;;;;;4.60;1.30;;;18.10;99.90;;;;;;4951034;28;20216;-67
2023/08/09 12:45:44;;;;;;;2.53;0.60;;;18.00;99.90;;;;;;4955617;28;20273;-65
2023/08/09 12:48:11;;;;;;;1.57;0.57;;;18.00;99.90;;;;;;4955652;28;20288;-65
2023/08/09 12:50:38;;;;;;;2.83;0.70;;;18.20;99.90;;;;;;4956859;28;20194;-66
2023/08/09 12:53:06;;;;;;;5.20;1.03;;;18.40;99.90;;;;;;4959420;28;20260;-67